No particular awareness of the weather is required.    There are no Weather-warnings


Meteo18 Weather Cam more information Meteo18 Weather Cam


Thunder radar more information blitzortung!


Rain radar more information rain snow radar


Visit our other weather sites:

Template documentation
and downloads

And another site



Weather Underground History page Text

Daily Summary for March 31, 2017 Units:  Metric    English   Both
« Previous Day
Next Day »
Daily Weekly Monthly Yearly Custom
  High: Low: Average:
Temperature: -17.8 °C -12.8 °C -10.7 °C
Dew Point: -17.8 °C -16.1 °C -13.3 °C
Humidity: Humidity % 48 % 73 %
Wind Speed: 0 km/h 0 km/h 6.9 km/h
Wind Gust: 0 km/h - -
Wind:- - SSW
Pressure: 0 hPa 34384.8 hPa -
Precipitation: 104.14 mm    
Historical Graphs
 
 
Tabular Data for March 31, 2017
Time Temperature Dew Point Pressure Wind Wind Speed Wind Gust Humidity Rainfall Rate (Hourly)
-17.8 °C -17.8 °C 0 hPa Calm     Humidity % 0 mm
00:02 -10.1 °C -13.3 °C 34496.6 hPa Calm     68 % 0 mm
00:07 -10.1 °C -13.3 °C 34496.6 hPa Calm     68 % 0 mm
00:12 -10.2 °C -13.3 °C 34496.6 hPa Calm     69 % 0 mm
00:17 -10.2 °C -13.3 °C 34496.6 hPa Calm     69 % 0 mm
00:22 -10.3 °C -13.3 °C 34496.6 hPa Calm     70 % 0 mm
00:32 -10.2 °C -13.2 °C 34496.6 hPa Calm     70 % 0 mm
00:37 -9.9 °C -13.1 °C 34496.6 hPa Calm     68 % 0 mm
00:42 -9.8 °C -13.2 °C 34496.6 hPa Calm     67 % 0 mm
00:52 -9.9 °C -13.2 °C 34496.6 hPa Calm     67 % 0 mm
00:57 -10.1 °C -13.3 °C 34496.6 hPa Calm     68 % 0 mm
01:02 -10.2 °C -13.3 °C 34496.6 hPa Calm     69 % 0 mm
01:12 -10.4 °C -13.4 °C 34496.6 hPa Calm     70 % 0 mm
01:17 -10.7 °C -13.5 °C 34496.6 hPa Calm     71 % 0 mm
01:22 -10.8 °C -13.5 °C 34496.6 hPa Calm     72 % 0 mm
01:27 -10.9 °C -13.5 °C 34496.6 hPa Calm     73 % 0 mm
01:32 -10.9 °C -13.4 °C 34496.6 hPa Calm     74 % 0 mm
01:42 -10.8 °C -13.3 °C 34486.4 hPa West 2.6 km/h   74 % 0 mm
01:47 -10.6 °C -13 °C 34486.4 hPa Calm   5.1 km/h 75 % 0 mm
01:52 -10.4 °C -13 °C 34486.4 hPa WSW 2.6 km/h 5.1 km/h 73 % 0 mm
02:02 -10.2 °C -13 °C 34486.4 hPa Calm   5.1 km/h 72 % 0 mm
02:12 -10.4 °C -13.1 °C 34486.4 hPa Calm   2.6 km/h 72 % 0 mm
02:17 -10.6 °C -13.3 °C 34496.6 hPa Calm   2.6 km/h 72 % 0 mm
02:22 -10.8 °C -13.3 °C 34496.6 hPa Calm   2.6 km/h 74 % 0 mm
02:32 -10.8 °C -13.2 °C 34486.4 hPa ENE 2.6 km/h 5.1 km/h 75 % 0 mm
02:42 -10.8 °C -13.3 °C 34486.4 hPa Calm   5.1 km/h 74 % 0 mm
02:47 -10.8 °C -13.4 °C 34486.4 hPa Calm   2.6 km/h 73 % 0 mm
02:52 -10.8 °C -13.4 °C 34486.4 hPa North 5.1 km/h 5.1 km/h 73 % 0 mm
02:57 -11 °C -13.4 °C 34486.4 hPa Calm   5.1 km/h 75 % 0 mm
03:07 -10.9 °C -13.6 °C 34486.4 hPa Calm   5.1 km/h 72 % 0 mm
03:12 -10.9 °C -13.4 °C 34476.3 hPa Calm   5.1 km/h 74 % 0 mm
03:17 -11.1 °C -13.6 °C 34476.3 hPa Calm   2.6 km/h 74 % 0 mm
03:22 -11.2 °C -13.7 °C 34486.4 hPa Calm   2.6 km/h 74 % 0 mm
03:32 -11.4 °C -13.7 °C 34476.3 hPa Calm     76 % 0 mm
03:42 -11.6 °C -13.7 °C 34476.3 hPa Calm     78 % 0 mm
03:47 -11.7 °C -13.7 °C 34462.7 hPa Calm     78 % 0 mm
03:52 -11.5 °C -13.9 °C 34476.3 hPa Calm   2.6 km/h 75 % 0 mm
03:57 -11.5 °C -14 °C 34462.7 hPa Calm   2.6 km/h 74 % 0 mm
04:02 -11.6 °C -14 °C 34462.7 hPa Calm   2.6 km/h 75 % 0 mm
04:12 -11.8 °C -14 °C 34462.7 hPa Calm   2.6 km/h 77 % 0 mm
04:17 -11.9 °C -14.1 °C 34462.7 hPa Calm     77 % 0 mm
04:22 -11.9 °C -14.1 °C 34462.7 hPa Calm     77 % 0 mm
04:27 -11.9 °C -14.1 °C 34462.7 hPa NE 2.6 km/h   77 % 0 mm
04:32 -12 °C -14.2 °C 34452.6 hPa Calm     77 % 0 mm
04:42 -12.1 °C -14.1 °C 34452.6 hPa Calm   2.6 km/h 79 % 0 mm
04:47 -12.1 °C -14.1 °C 34452.6 hPa Calm   2.6 km/h 79 % 0 mm
04:52 -12.1 °C -14.1 °C 34452.6 hPa Calm   2.6 km/h 78 % 0 mm
04:57 -12 °C -14.1 °C 34452.6 hPa Calm   2.6 km/h 78 % 0 mm
05:02 -12.1 °C -14.3 °C 34452.6 hPa Calm     76 % 0 mm
05:12 -12.2 °C -14.2 °C 34452.6 hPa Calm     78 % 0 mm
05:22 -12.2 °C -14.7 °C 34442.4 hPa Calm     73 % 0 mm
05:32 -12.4 °C -14.7 °C 34442.4 hPa Calm     76 % 0 mm
05:37 -12.4 °C -14.8 °C 34442.4 hPa Calm     75 % 0 mm
05:42 -12.3 °C -14.8 °C 34442.4 hPa Calm     74 % 0 mm
05:52 -12.3 °C -14.7 °C 34442.4 hPa Calm     75 % 0 mm
06:02 -12.6 °C -14.9 °C 34442.4 hPa Calm     75 % 0 mm
06:12 -12.6 °C -15.2 °C 34442.4 hPa Calm     72 % 0 mm
06:17 -12.6 °C -15.3 °C 34442.4 hPa Calm     71 % 0 mm
06:22 -12.5 °C -15.4 °C 34442.4 hPa Calm     70 % 0 mm
06:32 -12.6 °C -15.5 °C 34442.4 hPa Calm     70 % 0 mm
06:37 -12.7 °C -15.7 °C 34428.8 hPa Calm     69 % 0 mm
06:42 -12.7 °C -15.8 °C 34442.4 hPa Calm     68 % 0 mm
06:47 -12.6 °C -15.7 °C 34442.4 hPa Calm     68 % 0 mm
06:52 -12.6 °C -15.8 °C 34442.4 hPa Calm     67 % 0 mm
07:02 -12.3 °C -16.1 °C 34442.4 hPa Calm     63 % 0 mm
07:07 -12.4 °C -15.9 °C 34442.4 hPa Calm     65 % 0 mm
07:12 -12.4 °C -15.9 °C 34442.4 hPa Calm     65 % 0 mm
07:17 -12.4 °C -16 °C 34442.4 hPa Calm     64 % 0 mm
07:22 -12.4 °C -16.1 °C 34442.4 hPa Calm     64 % 0 mm
07:27 -12.6 °C -16 °C 34442.4 hPa Calm     65 % 0 mm
07:32 -12.6 °C -16.1 °C 34442.4 hPa Calm     65 % 0 mm
07:42 -12.7 °C -15.9 °C 34452.6 hPa NW 5.1 km/h   67 % 0 mm
07:47 -12.6 °C -16.1 °C 34442.4 hPa NW 2.6 km/h   65 % 0 mm
07:57 -12.4 °C -16.1 °C 34442.4 hPa Calm   5.1 km/h 64 % 0 mm
08:02 -12.6 °C -16.1 °C 34452.6 hPa Calm   2.6 km/h 65 % 0 mm
08:12 -12.7 °C -15.9 °C 34452.6 hPa Calm   2.6 km/h 67 % 0 mm
08:17 -12.8 °C -15.9 °C 34452.6 hPa South 2.6 km/h 2.6 km/h 68 % 0 mm
08:22 -12.7 °C -15.8 °C 34452.6 hPa South 2.6 km/h 5.1 km/h 68 % 0 mm
08:32 -12.6 °C -15.9 °C 34452.6 hPa Calm   5.1 km/h 66 % 0 mm
08:37 -12.6 °C -15.9 °C 34452.6 hPa Calm   5.1 km/h 66 % 0 mm
08:42 -12.4 °C -15.7 °C 34452.6 hPa Calm   2.6 km/h 67 % 0 mm
08:47 -12.4 °C -15.7 °C 34462.7 hPa Calm   2.6 km/h 67 % 0 mm
08:52 -12.4 °C -15.6 °C 34462.7 hPa Calm   5.1 km/h 67 % 0 mm
09:02 -12.3 °C -15.3 °C 34462.7 hPa Calm   5.1 km/h 69 % 0 mm
09:12 -12 °C -15.2 °C 34462.7 hPa Calm   7.7 km/h 68 % 0 mm
09:17 -11.9 °C -15.1 °C 34462.7 hPa South 2.6 km/h 7.7 km/h 68 % 0 mm
09:22 -11.8 °C -15 °C 34462.7 hPa Calm   7.7 km/h 68 % 0 mm
09:32 -11.6 °C -14.8 °C 34462.7 hPa South 5.1 km/h 7.7 km/h 67 % 0 mm
09:37 -11.4 °C -14.8 °C 34462.7 hPa SSW 7.7 km/h 7.7 km/h 66 % 0 mm
09:42 -11.3 °C -14.7 °C 34462.7 hPa SSW 5.1 km/h 12.9 km/h 66 % 0 mm
09:47 -11.2 °C -14.6 °C 34462.7 hPa South 10.3 km/h 12.9 km/h 66 % 0 mm
09:52 -10.9 °C -14.7 °C 34462.7 hPa South 7.7 km/h 15.6 km/h 63 % 0 mm
10:02 -10.7 °C -14.6 °C 34476.3 hPa South 10.3 km/h 18.2 km/h 62 % 0 mm
10:12 -10.5 °C -14.4 °C 34476.3 hPa SSW 2.6 km/h 18.2 km/h 62 % 0 mm
10:22 -10.2 °C -14.6 °C 34476.3 hPa SSW 5.1 km/h 18.2 km/h 59 % 0 mm
10:32 -9.9 °C -14.2 °C 34486.4 hPa SE 7.7 km/h 18.2 km/h 60 % 0 mm
10:42 -9.7 °C -14.2 °C 34486.4 hPa SE 10.3 km/h 15.6 km/h 58 % 0 mm
10:47 -9.6 °C -14.1 °C 34486.4 hPa SW 15.6 km/h 15.6 km/h 58 % 0 mm
10:52 -9.4 °C -13.8 °C 34486.4 hPa SE 7.7 km/h 20.8 km/h 59 % 0 mm
10:57 -9.2 °C -14 °C 34486.4 hPa SSW 12.9 km/h 20.8 km/h 56 % 0 mm
11:02 -9 °C -14.3 °C 34486.4 hPa SSW 18.2 km/h 18.2 km/h 53 % 0 mm
11:07 -8.8 °C -14.4 °C 34486.4 hPa SW 20.8 km/h 20.8 km/h 51 % 0 mm
11:12 -8.5 °C -14.3 °C 34486.4 hPa WSW 31.1 km/h 44.1 km/h 50 % 0 mm
11:17 -8.4 °C -14.6 °C 34486.4 hPa WSW 12.9 km/h 44.1 km/h 48 % 0 mm
11:22 -8.5 °C -14.7 °C 34496.6 hPa WSW 18.2 km/h 44.1 km/h 48 % 0 mm
11:27 -8.6 °C -14.3 °C 34496.6 hPa SW 33.6 km/h 44.1 km/h 51 % 0 mm
11:37 -8.7 °C -14.2 °C 34496.6 hPa SW 25.9 km/h 44.1 km/h 52 % 0 mm
11:42 -8.8 °C -14.3 °C 34496.6 hPa SW 41.4 km/h 49.2 km/h 52 % 0 mm
11:47 -8.9 °C -14.1 °C 34496.6 hPa SW 31.1 km/h 49.2 km/h 54 % 0 mm
11:52 -9 °C -14.2 °C 34496.6 hPa WSW 18.2 km/h 49.2 km/h 54 % 0 mm
12:02 -8.9 °C -13.9 °C 34496.6 hPa WSW 18.2 km/h 41.4 km/h 55 % 0 mm
12:12 -8.7 °C -13.8 °C 34496.6 hPa SW 28.5 km/h 44.1 km/h 55 % 0 mm
12:17 -8.7 °C -13.6 °C 34496.6 hPa WSW 33.6 km/h 44.1 km/h 56 % 0 mm
12:22 -8.7 °C -13.4 °C 34496.6 hPa South 10.3 km/h 44.1 km/h 57 % 0 mm
12:32 -8.7 °C -13.1 °C 34496.6 hPa WSW 15.6 km/h 57 km/h 60 % 0 mm
12:42 -9 °C -13.2 °C 34496.6 hPa SSW 15.6 km/h 46.7 km/h 61 % 0 mm
12:47 -8.9 °C -13.1 °C 34496.6 hPa SW 15.6 km/h 46.7 km/h 61 % 0 mm
12:52 -8.9 °C -13 °C 34496.6 hPa WSW 18.2 km/h 46.7 km/h 62 % 0 mm
13:02 -9.1 °C -13 °C 34496.6 hPa West 15.6 km/h 38.8 km/h 63 % 0 mm
13:07 -9.2 °C -12.8 °C 34486.4 hPa West 7.7 km/h 38.8 km/h 65 % 0 mm
13:12 -9.2 °C -12.8 °C 34496.6 hPa SW 25.9 km/h 31.1 km/h 65 % 0 mm
13:22 -9.3 °C -12.9 °C 34496.6 hPa WSW 18.2 km/h 31.1 km/h 65 % 0 mm
13:32 -9.6 °C -12.6 °C 34496.6 hPa SW 20.8 km/h 33.6 km/h 70 % 0 mm
13:37 -9.6 °C -12.5 °C 34496.6 hPa SW 25.9 km/h 33.6 km/h 71 % 0 mm
13:42 -9.6 °C -12.6 °C 34496.6 hPa WSW 10.3 km/h 31.1 km/h 70 % 0 mm
13:52 -9.3 °C -12.2 °C 34486.4 hPa SW 12.9 km/h 25.9 km/h 71 % 0 mm
14:02 -9.1 °C -12.6 °C 34486.4 hPa SSW 20.8 km/h 28.5 km/h 66 % 0 mm
14:07 -9.1 °C -12.4 °C 34486.4 hPa SW 18.2 km/h 28.5 km/h 67 % 0 mm
14:12 -9 °C -12.4 °C 34496.6 hPa SSW 25.9 km/h 33.6 km/h 67 % 0 mm
14:17 -8.9 °C -12.4 °C 34496.6 hPa SSW 15.6 km/h 36.2 km/h 66 % 0 mm
14:27 -8.9 °C -12.4 °C 34496.6 hPa SSW 15.6 km/h 38.8 km/h 66 % 0 mm
14:32 -8.8 °C -12.5 °C 34496.6 hPa SW 23.3 km/h 38.8 km/h 65 % 0 mm
14:37 -8.9 °C -12.6 °C 34486.4 hPa SSW 12.9 km/h 38.8 km/h 65 % 0 mm
14:42 -8.9 °C -12.6 °C 34486.4 hPa SSW 15.6 km/h 38.8 km/h 65 % 0 mm
14:47 -8.9 °C -12.7 °C 34486.4 hPa SW 12.9 km/h 36.2 km/h 64 % 0 mm
14:52 -8.9 °C -12.6 °C 34486.4 hPa West 12.9 km/h 36.2 km/h 65 % 0 mm
14:57 -8.9 °C -12.6 °C 34486.4 hPa WSW 12.9 km/h 33.6 km/h 65 % 0 mm
15:02 -8.9 °C -12.4 °C 34486.4 hPa WSW 18.2 km/h 33.6 km/h 66 % 0 mm
15:12 -9.4 °C -12.3 °C 34486.4 hPa West 20.8 km/h 41.4 km/h 71 % 0 mm
15:17 -9.7 °C -12.2 °C 34486.4 hPa West 28.5 km/h 41.4 km/h 74 % 0 mm
15:22 -9.8 °C -12.1 °C 34486.4 hPa WSW 7.7 km/h 41.4 km/h 76 % 0 mm
15:32 -9.7 °C -12.3 °C 34486.4 hPa West 25.9 km/h 41.4 km/h 74 % 0 mm
15:42 -9.7 °C -12.3 °C 34476.3 hPa SW 10.3 km/h 31.1 km/h 73 % 0 mm
15:47 -9.6 °C -12.4 °C 34476.3 hPa WSW 15.6 km/h 36.2 km/h 72 % 0 mm
15:52 -9.5 °C -12.2 °C 34462.7 hPa SW 20.8 km/h 36.2 km/h 73 % 0 mm
16:02 -9.5 °C -12.4 °C 34462.7 hPa SW 31.1 km/h 31.1 km/h 71 % 0 mm
16:12 -9.4 °C -12 °C 34462.7 hPa SW 23.3 km/h 33.6 km/h 74 % 0 mm
16:17 -9.5 °C -12.4 °C 34462.7 hPa SW 23.3 km/h 33.6 km/h 71 % 0 mm
16:22 -9.5 °C -12.5 °C 34462.7 hPa SW 25.9 km/h 33.6 km/h 70 % 0 mm
16:32 -9.5 °C -12.4 °C 34462.7 hPa South 18.2 km/h 36.2 km/h 71 % 0 mm
16:37 -9.4 °C -12.2 °C 34462.7 hPa SW 20.8 km/h 36.2 km/h 72 % 0 mm
16:42 -9.4 °C -12.3 °C 34452.6 hPa SSW 12.9 km/h 36.2 km/h 71 % 0 mm
16:47 -9.4 °C -12.2 °C 34452.6 hPa SSW 18.2 km/h 33.6 km/h 72 % 0 mm
16:52 -9.4 °C -12.2 °C 34452.6 hPa SW 12.9 km/h 33.6 km/h 72 % 0 mm
16:57 -9.4 °C -12.3 °C 34452.6 hPa SSW 31.1 km/h 33.6 km/h 71 % 0 mm
17:02 -9.4 °C -12.2 °C 34452.6 hPa SSW 15.6 km/h 33.6 km/h 72 % 0 mm
17:12 -9.5 °C -12.3 °C 34452.6 hPa SW 12.9 km/h 33.6 km/h 72 % 0 mm
17:17 -9.5 °C -12.4 °C 34442.4 hPa SSW 23.3 km/h 33.6 km/h 71 % 0 mm
17:22 -9.6 °C -12.3 °C 34452.6 hPa SSW 15.6 km/h 33.6 km/h 72 % 0 mm
17:32 -9.6 °C -12.2 °C 34452.6 hPa SSW 7.7 km/h 31.1 km/h 74 % 0 mm
17:42 -9.8 °C -12.1 °C 34452.6 hPa SW 10.3 km/h 28.5 km/h 76 % 0 mm
17:52 -9.9 °C -11.8 °C 34442.4 hPa SW 10.3 km/h 28.5 km/h 80 % 0 mm
17:57 -10.1 °C -11.7 °C 34442.4 hPa SW 12.9 km/h 28.5 km/h 82 % 0 mm
18:02 -10.2 °C -11.7 °C 34442.4 hPa SW 5.1 km/h 25.9 km/h 83 % 7.62 mm
18:12 -10.3 °C -11.8 °C 34442.4 hPa SW 10.3 km/h 20.8 km/h 83 % 7.62 mm
18:17 -10.3 °C -11.9 °C 34442.4 hPa SW 7.7 km/h 18.2 km/h 83 % 7.62 mm
18:22 -10.3 °C -11.8 °C 34442.4 hPa SW 15.6 km/h 18.2 km/h 84 % 7.62 mm
18:32 -10.3 °C -11.7 °C 34428.8 hPa South 5.1 km/h 18.2 km/h 85 % 7.62 mm
18:42 -10.3 °C -11.5 °C 34428.8 hPa SW 10.3 km/h 18.2 km/h 87 % 7.62 mm
18:52 -10.3 °C -11.5 °C 34428.8 hPa SSW 7.7 km/h 15.6 km/h 87 % 7.62 mm
19:02 -10.4 °C -11.7 °C 34418.7 hPa South 2.6 km/h 15.6 km/h 86 % 7.62 mm
19:12 -10.4 °C -11.7 °C 34418.7 hPa Calm   10.3 km/h 86 % 7.62 mm
19:17 -10.4 °C -11.7 °C 34418.7 hPa Calm   7.7 km/h 86 % 7.62 mm
19:22 -10.4 °C -11.7 °C 34418.7 hPa Calm   5.1 km/h 86 % 7.62 mm
19:32 -10.5 °C -11.7 °C 34418.7 hPa Calm   2.6 km/h 87 % 7.62 mm
19:42 -10.6 °C -11.8 °C 34405.1 hPa Calm   2.6 km/h 86 % 7.62 mm
19:52 -10.6 °C -11.7 °C 34405.1 hPa Calm     87 % 7.62 mm
19:57 -10.6 °C -11.9 °C 34405.1 hPa Calm     86 % 0 mm
20:02 -10.6 °C -11.9 °C 34405.1 hPa Calm     86 % 0 mm
20:12 -10.7 °C -11.9 °C 34405.1 hPa Calm     86 % 0 mm
20:17 -10.7 °C -11.9 °C 34405.1 hPa Calm     87 % 0 mm
20:22 -10.7 °C -11.9 °C 34405.1 hPa Calm   2.6 km/h 87 % 0 mm
20:32 -10.8 °C -11.9 °C 34405.1 hPa Calm   2.6 km/h 87 % 0 mm
20:42 -10.8 °C -11.9 °C 34405.1 hPa SW 2.6 km/h   87 % 0 mm
20:47 -10.8 °C -11.9 °C 34405.1 hPa Calm   7.7 km/h 88 % 0 mm
20:52 -10.8 °C -11.9 °C 34405.1 hPa Calm   7.7 km/h 88 % 0 mm
20:57 -10.9 °C -11.9 °C 34405.1 hPa SSW 2.6 km/h 7.7 km/h 88 % 0 mm
21:02 -10.9 °C -11.9 °C 34405.1 hPa Calm   7.7 km/h 89 % 0 mm
21:12 -11 °C -11.9 °C 34405.1 hPa Calm   5.1 km/h 90 % 0 mm
21:17 -11.1 °C -11.9 °C 34405.1 hPa Calm   2.6 km/h 90 % 0 mm
21:22 -11.1 °C -11.8 °C 34405.1 hPa Calm   2.6 km/h 91 % 7.62 mm
21:32 -11.1 °C -11.9 °C 34418.7 hPa Calm   2.6 km/h 91 % 7.62 mm
21:42 -11.2 °C -11.9 °C 34405.1 hPa Calm   5.1 km/h 92 % 12.7 mm
21:47 -11.2 °C -11.8 °C 34405.1 hPa Calm   5.1 km/h 93 % 12.7 mm
21:52 -11.2 °C -11.8 °C 34405.1 hPa Calm   5.1 km/h 93 % 12.7 mm
21:57 -11.2 °C -11.8 °C 34405.1 hPa Calm   5.1 km/h 93 % 12.7 mm
22:02 -11.2 °C -11.8 °C 34405.1 hPa Calm   5.1 km/h 93 % 12.7 mm
22:12 -11.3 °C -11.9 °C 34405.1 hPa Calm   5.1 km/h 93 % 12.7 mm
22:17 -11.3 °C -11.8 °C 34395 hPa Calm   2.6 km/h 94 % 12.7 mm
22:22 -11.3 °C -11.8 °C 34395 hPa Calm   2.6 km/h 94 % 12.7 mm
22:32 -11.3 °C -11.8 °C 34395 hPa Calm   2.6 km/h 94 % 12.7 mm
22:37 -11.3 °C -11.8 °C 34395 hPa SE 2.6 km/h 5.1 km/h 94 % 12.7 mm
22:42 -11.3 °C -11.8 °C 34395 hPa Calm   5.1 km/h 94 % 12.7 mm
22:52 -11.4 °C -11.9 °C 34395 hPa SSW 5.1 km/h 7.7 km/h 94 % 7.62 mm
22:57 -11.4 °C -11.9 °C 34395 hPa SSW 2.6 km/h 12.9 km/h 94 % 12.7 mm
23:02 -11.4 °C -11.9 °C 34395 hPa SSW 5.1 km/h 12.9 km/h 94 % 12.7 mm
23:12 -11.4 °C -11.9 °C 34395 hPa SSW 5.1 km/h 12.9 km/h 95 % 25.4 mm
23:17 -11.4 °C -11.9 °C 34395 hPa South 7.7 km/h 10.3 km/h 95 % 38.1 mm
23:22 -11.4 °C -11.9 °C 34395 hPa SSW 7.7 km/h 10.3 km/h 95 % 38.1 mm
23:32 -11.5 °C -11.9 °C 34395 hPa SW 5.1 km/h 15.6 km/h 95 % 45.72 mm
23:42 -11.5 °C -11.9 °C 34395 hPa South 5.1 km/h 15.6 km/h 95 % 50.8 mm
23:47 -11.5 °C -11.9 °C 34395 hPa SSW 10.3 km/h 12.9 km/h 95 % 58.42 mm
23:52 -11.5 °C -11.9 °C 34395 hPa SSW 5.1 km/h 12.9 km/h 95 % 58.42 mm
23:57 -11.6 °C -12 °C 34384.8 hPa SSW 5.1 km/h 15.6 km/h 95 % 58.42 mm
Meteo18
Compliments of Weather Underground - 4 mb

Script developed by  Jim McMurry - jmcmurry@mwt.net Adapted for the template by  Wim van der Kuil - Leuven-Template.eu

You find our weather info also at:

European Weather Network

Weather Underground

Equipment we use:

Weather-station
Davis Vue

Weather-program
Meteobridge

Weather-server
Raspberry PI 2 B+

Provider
1 and 1

Davis Vue

Meteobridge

Raspberry PI 2 B+

1 and 1